sensor_id;sensor_type;location;lat;lon;timestamp;pressure;altitude;pressure_sealevel;temperature;humidity
24588;BME280;12744;52.270;9.746;2022-07-23T00:00:50;105030.50;;;16.80;100.00
24588;BME280;12744;52.270;9.746;2022-07-23T00:03:21;105041.53;;;16.86;100.00
24588;BME280;12744;52.270;9.746;2022-07-23T00:05:53;105049.75;;;16.86;100.00
24588;BME280;12744;52.270;9.746;2022-07-23T00:08:24;105055.31;;;16.93;100.00
24588;BME280;12744;52.270;9.746;2022-07-23T00:10:55;105076.66;;;16.97;100.00
24588;BME280;12744;52.270;9.746;2022-07-23T00:13:27;105064.97;;;16.89;100.00
24588;BME280;12744;52.270;9.746;2022-07-23T00:15:58;105061.94;;;16.84;100.00
24588;BME280;12744;52.270;9.746;2022-07-23T00:18:29;105081.78;;;16.86;100.00
24588;BME280;12744;52.270;9.746;2022-07-23T00:21:00;105095.56;;;16.78;100.00
24588;BME280;12744;52.270;9.746;2022-07-23T00:23:31;105113.63;;;16.72;100.00
24588;BME280;12744;52.270;9.746;2022-07-23T00:26:02;105125.41;;;16.73;100.00
24588;BME280;12744;52.270;9.746;2022-07-23T00:28:34;105131.94;;;16.72;100.00
24588;BME280;12744;52.270;9.746;2022-07-23T00:31:05;105150.19;;;16.79;100.00
24588;BME280;12744;52.270;9.746;2022-07-23T00:33:36;105167.75;;;16.85;100.00
24588;BME280;12744;52.270;9.746;2022-07-23T00:36:08;105154.25;;;16.83;100.00
24588;BME280;12744;52.270;9.746;2022-07-23T00:38:39;105114.59;;;16.57;100.00
24588;BME280;12744;52.270;9.746;2022-07-23T00:41:10;105146.06;;;16.61;100.00
24588;BME280;12744;52.270;9.746;2022-07-23T00:43:41;105142.00;;;16.57;100.00
24588;BME280;12744;52.270;9.746;2022-07-23T00:46:12;105166.44;;;16.58;100.00
24588;BME280;12744;52.270;9.746;2022-07-23T00:48:43;105171.47;;;16.55;100.00
24588;BME280;12744;52.270;9.746;2022-07-23T00:51:16;105169.94;;;16.52;100.00
24588;BME280;12744;52.270;9.746;2022-07-23T00:53:47;105166.00;;;16.47;100.00
24588;BME280;12744;52.270;9.746;2022-07-23T00:56:19;105152.25;;;16.32;100.00
24588;BME280;12744;52.270;9.746;2022-07-23T00:58:50;105159.63;;;16.31;100.00
24588;BME280;12744;52.270;9.746;2022-07-23T01:01:21;105177.94;;;16.31;100.00
24588;BME280;12744;52.270;9.746;2022-07-23T01:03:52;105197.38;;;16.36;100.00
24588;BME280;12744;52.270;9.746;2022-07-23T01:06:23;105203.56;;;16.38;100.00
24588;BME280;12744;52.270;9.746;2022-07-23T01:08:55;105207.31;;;16.37;100.00
24588;BME280;12744;52.270;9.746;2022-07-23T01:11:26;105209.88;;;16.38;100.00
24588;BME280;12744;52.270;9.746;2022-07-23T01:13:57;105207.56;;;16.27;100.00
24588;BME280;12744;52.270;9.746;2022-07-23T01:16:28;105219.84;;;16.31;100.00
24588;BME280;12744;52.270;9.746;2022-07-23T01:18:59;105208.78;;;16.25;100.00
24588;BME280;12744;52.270;9.746;2022-07-23T01:21:31;105205.84;;;16.26;100.00
24588;BME280;12744;52.270;9.746;2022-07-23T01:24:02;105196.59;;;16.27;100.00
24588;BME280;12744;52.270;9.746;2022-07-23T01:26:37;105169.63;;;16.16;100.00
24588;BME280;12744;52.270;9.746;2022-07-23T01:29:09;105127.38;;;15.96;100.00
24588;BME280;12744;52.270;9.746;2022-07-23T01:31:41;105177.56;;;16.11;100.00
24588;BME280;12744;52.270;9.746;2022-07-23T01:34:13;105184.19;;;16.17;100.00
24588;BME280;12744;52.270;9.746;2022-07-23T01:36:45;105163.88;;;16.11;100.00
24588;BME280;12744;52.270;9.746;2022-07-23T01:39:17;105159.13;;;16.05;100.00
24588;BME280;12744;52.270;9.746;2022-07-23T01:41:48;105096.34;;;15.81;100.00
24588;BME280;12744;52.270;9.746;2022-07-23T01:44:20;105117.19;;;15.82;100.00
24588;BME280;12744;52.270;9.746;2022-07-23T01:46:51;105106.63;;;15.79;100.00
24588;BME280;12744;52.270;9.746;2022-07-23T01:49:24;105071.00;;;15.64;100.00
24588;BME280;12744;52.270;9.746;2022-07-23T01:52:28;105070.25;;;15.70;100.00
24588;BME280;12744;52.270;9.746;2022-07-23T01:54:59;105046.94;;;15.60;100.00
24588;BME280;12744;52.270;9.746;2022-07-23T01:57:31;104990.66;;;15.35;100.00
24588;BME280;12744;52.270;9.746;2022-07-23T02:00:03;105006.72;;;15.38;100.00
24588;BME280;12744;52.270;9.746;2022-07-23T02:02:43;104960.47;;;14.97;100.00
24588;BME280;12744;52.270;9.746;2022-07-23T02:05:15;104927.19;;;14.55;100.00
24588;BME280;12744;52.270;9.746;2022-07-23T02:07:46;104959.59;;;14.58;100.00
24588;BME280;12744;52.270;9.746;2022-07-23T02:10:17;105001.50;;;14.81;100.00
24588;BME280;12744;52.270;9.746;2022-07-23T02:12:48;104996.38;;;14.86;100.00
24588;BME280;12744;52.270;9.746;2022-07-23T02:15:19;104954.84;;;14.52;100.00
24588;BME280;12744;52.270;9.746;2022-07-23T02:17:51;104978.03;;;14.56;100.00
24588;BME280;12744;52.270;9.746;2022-07-23T02:20:22;105018.97;;;14.64;100.00
24588;BME280;12744;52.270;9.746;2022-07-23T02:22:53;105043.88;;;14.69;100.00
24588;BME280;12744;52.270;9.746;2022-07-23T02:25:24;105080.34;;;14.84;100.00
24588;BME280;12744;52.270;9.746;2022-07-23T02:27:59;105109.03;;;14.88;100.00
24588;BME280;12744;52.270;9.746;2022-07-23T02:30:30;105081.56;;;14.66;100.00
24588;BME280;12744;52.270;9.746;2022-07-23T02:33:01;105111.44;;;14.67;100.00
24588;BME280;12744;52.270;9.746;2022-07-23T02:35:33;105146.91;;;14.75;100.00
24588;BME280;12744;52.270;9.746;2022-07-23T02:38:06;105137.75;;;14.52;100.00
24588;BME280;12744;52.270;9.746;2022-07-23T02:40:37;105148.97;;;14.41;100.00
24588;BME280;12744;52.270;9.746;2022-07-23T02:43:09;105222.16;;;14.45;100.00
24588;BME280;12744;52.270;9.746;2022-07-23T02:45:40;105280.03;;;14.57;100.00
24588;BME280;12744;52.270;9.746;2022-07-23T02:48:11;105352.91;;;14.73;100.00
24588;BME280;12744;52.270;9.746;2022-07-23T02:50:44;105419.16;;;14.83;100.00
24588;BME280;12744;52.270;9.746;2022-07-23T02:53:18;105465.78;;;14.89;100.00
24588;BME280;12744;52.270;9.746;2022-07-23T02:55:50;105507.16;;;15.02;100.00
24588;BME280;12744;52.270;9.746;2022-07-23T02:58:21;105521.19;;;15.07;100.00
24588;BME280;12744;52.270;9.746;2022-07-23T03:00:54;105580.88;;;15.28;100.00
24588;BME280;12744;52.270;9.746;2022-07-23T03:03:25;105607.41;;;15.44;100.00
24588;BME280;12744;52.270;9.746;2022-07-23T03:05:56;105604.63;;;15.36;100.00
24588;BME280;12744;52.270;9.746;2022-07-23T03:08:28;105619.00;;;15.38;100.00
24588;BME280;12744;52.270;9.746;2022-07-23T03:11:00;105636.78;;;15.42;100.00
24588;BME280;12744;52.270;9.746;2022-07-23T03:13:32;105657.34;;;15.46;100.00
24588;BME280;12744;52.270;9.746;2022-07-23T03:16:03;105681.66;;;15.57;100.00
24588;BME280;12744;52.270;9.746;2022-07-23T03:18:35;105707.53;;;15.70;100.00
24588;BME280;12744;52.270;9.746;2022-07-23T03:21:09;105753.75;;;15.82;100.00
24588;BME280;12744;52.270;9.746;2022-07-23T03:23:42;105748.59;;;15.78;100.00
24588;BME280;12744;52.270;9.746;2022-07-23T03:26:13;105751.16;;;15.80;100.00
24588;BME280;12744;52.270;9.746;2022-07-23T03:28:44;105697.41;;;15.63;100.00
24588;BME280;12744;52.270;9.746;2022-07-23T03:31:15;105722.97;;;15.80;100.00
24588;BME280;12744;52.270;9.746;2022-07-23T03:33:46;105710.75;;;15.66;100.00
24588;BME280;12744;52.270;9.746;2022-07-23T03:36:17;105751.16;;;15.80;100.00
24588;BME280;12744;52.270;9.746;2022-07-23T03:38:50;105749.41;;;15.71;100.00
24588;BME280;12744;52.270;9.746;2022-07-23T03:41:21;105723.19;;;15.60;100.00
24588;BME280;12744;52.270;9.746;2022-07-23T03:43:53;105761.34;;;15.70;100.00
24588;BME280;12744;52.270;9.746;2022-07-23T03:46:24;105793.88;;;15.73;100.00
24588;BME280;12744;52.270;9.746;2022-07-23T03:48:55;105782.72;;;15.66;100.00
24588;BME280;12744;52.270;9.746;2022-07-23T03:51:26;105806.09;;;15.61;100.00
24588;BME280;12744;52.270;9.746;2022-07-23T03:53:57;105855.03;;;15.64;100.00
24588;BME280;12744;52.270;9.746;2022-07-23T03:56:31;105834.50;;;15.42;100.00
24588;BME280;12744;52.270;9.746;2022-07-23T03:59:02;105885.03;;;15.56;100.00
24588;BME280;12744;52.270;9.746;2022-07-23T04:01:33;105877.81;;;15.47;100.00
24588;BME280;12744;52.270;9.746;2022-07-23T04:04:05;105909.63;;;15.48;100.00
24588;BME280;12744;52.270;9.746;2022-07-23T04:06:37;105978.56;;;15.77;100.00
24588;BME280;12744;52.270;9.746;2022-07-23T04:09:09;105994.41;;;15.91;100.00
24588;BME280;12744;52.270;9.746;2022-07-23T04:11:40;105992.66;;;15.90;100.00
24588;BME280;12744;52.270;9.746;2022-07-23T04:14:12;105967.97;;;15.82;100.00
24588;BME280;12744;52.270;9.746;2022-07-23T04:16:43;106000.50;;;15.85;100.00
24588;BME280;12744;52.270;9.746;2022-07-23T04:19:17;106038.41;;;15.98;100.00
24588;BME280;12744;52.270;9.746;2022-07-23T04:22:02;106053.66;;;16.00;100.00
24588;BME280;12744;52.270;9.746;2022-07-23T04:24:35;106074.66;;;16.00;100.00
24588;BME280;12744;52.270;9.746;2022-07-23T04:27:06;106100.16;;;16.00;100.00
24588;BME280;12744;52.270;9.746;2022-07-23T04:29:38;106122.16;;;16.08;100.00
24588;BME280;12744;52.270;9.746;2022-07-23T04:32:09;106110.13;;;16.01;100.00
24588;BME280;12744;52.270;9.746;2022-07-23T04:34:40;106150.91;;;16.12;100.00
24588;BME280;12744;52.270;9.746;2022-07-23T04:37:12;106135.13;;;16.06;100.00
24588;BME280;12744;52.270;9.746;2022-07-23T04:39:44;106158.75;;;16.07;100.00
24588;BME280;12744;52.270;9.746;2022-07-23T04:42:16;106176.81;;;16.18;100.00
24588;BME280;12744;52.270;9.746;2022-07-23T04:44:48;106167.03;;;16.15;100.00
24588;BME280;12744;52.270;9.746;2022-07-23T04:47:19;106159.69;;;16.16;100.00
24588;BME280;12744;52.270;9.746;2022-07-23T04:49:51;106137.41;;;16.11;100.00
24588;BME280;12744;52.270;9.746;2022-07-23T04:52:22;106126.19;;;16.04;100.00
24588;BME280;12744;52.270;9.746;2022-07-23T04:54:54;106116.91;;;15.97;100.00
24588;BME280;12744;52.270;9.746;2022-07-23T04:57:25;106110.19;;;15.92;100.00
24588;BME280;12744;52.270;9.746;2022-07-23T04:59:57;106133.41;;;16.05;100.00
24588;BME280;12744;52.270;9.746;2022-07-23T05:02:30;106151.94;;;16.11;100.00
24588;BME280;12744;52.270;9.746;2022-07-23T05:05:01;106132.63;;;16.13;100.00
24588;BME280;12744;52.270;9.746;2022-07-23T05:07:33;106126.19;;;16.04;100.00
24588;BME280;12744;52.270;9.746;2022-07-23T05:10:04;106090.56;;;15.96;100.00
24588;BME280;12744;52.270;9.746;2022-07-23T05:12:35;106107.38;;;16.01;100.00
24588;BME280;12744;52.270;9.746;2022-07-23T05:15:07;106103.28;;;16.05;100.00
24588;BME280;12744;52.270;9.746;2022-07-23T05:17:38;106119.81;;;16.13;100.00
24588;BME280;12744;52.270;9.746;2022-07-23T05:20:16;106106.50;;;16.18;100.00
24588;BME280;12744;52.270;9.746;2022-07-23T05:22:47;106108.91;;;16.21;100.00
24588;BME280;12744;52.270;9.746;2022-07-23T05:25:24;106110.00;;;16.28;100.00
24588;BME280;12744;52.270;9.746;2022-07-23T05:27:58;106102.00;;;16.35;100.00
24588;BME280;12744;52.270;9.746;2022-07-23T05:30:29;106063.22;;;16.22;100.00
24588;BME280;12744;52.270;9.746;2022-07-23T05:33:04;106055.19;;;16.20;100.00
24588;BME280;12744;52.270;9.746;2022-07-23T05:35:35;106104.63;;;16.44;100.00
24588;BME280;12744;52.270;9.746;2022-07-23T05:38:27;106115.03;;;16.59;100.00
24588;BME280;12744;52.270;9.746;2022-07-23T05:41:01;106108.53;;;16.60;100.00
24588;BME280;12744;52.270;9.746;2022-07-23T05:43:33;106171.06;;;16.90;100.00
24588;BME280;12744;52.270;9.746;2022-07-23T05:46:10;106150.81;;;16.83;100.00
24588;BME280;12744;52.270;9.746;2022-07-23T05:48:43;106168.31;;;16.90;100.00
24588;BME280;12744;52.270;9.746;2022-07-23T05:51:31;106177.47;;;16.98;100.00
24588;BME280;12744;52.270;9.746;2022-07-23T05:54:02;106202.91;;;17.17;100.00
24588;BME280;12744;52.270;9.746;2022-07-23T05:56:37;106198.84;;;17.21;100.00
24588;BME280;12744;52.270;9.746;2022-07-23T05:59:09;106249.03;;;17.47;100.00
24588;BME280;12744;52.270;9.746;2022-07-23T06:01:40;106260.59;;;17.58;100.00
24588;BME280;12744;52.270;9.746;2022-07-23T06:04:14;106278.47;;;17.70;100.00
24588;BME280;12744;52.270;9.746;2022-07-23T06:06:53;106291.44;;;17.86;100.00
24588;BME280;12744;52.270;9.746;2022-07-23T06:09:25;106196.41;;;17.51;100.00
24588;BME280;12744;52.270;9.746;2022-07-23T06:11:56;106213.69;;;17.78;100.00
24588;BME280;12744;52.270;9.746;2022-07-23T06:14:27;106229.88;;;17.97;100.00
24588;BME280;12744;52.270;9.746;2022-07-23T06:17:05;106185.94;;;17.97;100.00
24588;BME280;12744;52.270;9.746;2022-07-23T06:19:36;106185.28;;;18.19;100.00
24588;BME280;12744;52.270;9.746;2022-07-23T06:22:08;106099.25;;;18.02;100.00
24588;BME280;12744;52.270;9.746;2022-07-23T06:24:39;106216.91;;;18.71;100.00
24588;BME280;12744;52.270;9.746;2022-07-23T06:27:10;106069.56;;;18.38;100.00
24588;BME280;12744;52.270;9.746;2022-07-23T06:29:41;106119.44;;;18.90;100.00
24588;BME280;12744;52.270;9.746;2022-07-23T06:32:12;106029.50;;;18.98;100.00
24588;BME280;12744;52.270;9.746;2022-07-23T06:34:43;105905.22;;;18.80;100.00
24588;BME280;12744;52.270;9.746;2022-07-23T06:37:15;105935.28;;;19.27;100.00
24588;BME280;12744;52.270;9.746;2022-07-23T06:39:46;105913.94;;;19.52;100.00
24588;BME280;12744;52.270;9.746;2022-07-23T06:42:18;105758.91;;;19.22;100.00
24588;BME280;12744;52.270;9.746;2022-07-23T06:44:50;105785.38;;;19.75;100.00
24588;BME280;12744;52.270;9.746;2022-07-23T06:47:21;105697.28;;;19.96;100.00
24588;BME280;12744;52.270;9.746;2022-07-23T06:49:52;105593.44;;;19.90;100.00
24588;BME280;12744;52.270;9.746;2022-07-23T06:52:24;105472.09;;;19.92;100.00
24588;BME280;12744;52.270;9.746;2022-07-23T06:54:55;105391.13;;;20.20;100.00
24588;BME280;12744;52.270;9.746;2022-07-23T06:57:26;105296.97;;;20.51;100.00
24588;BME280;12744;52.270;9.746;2022-07-23T06:59:58;105119.28;;;20.27;100.00
24588;BME280;12744;52.270;9.746;2022-07-23T07:02:30;105051.47;;;20.66;100.00
24588;BME280;12744;52.270;9.746;2022-07-23T07:05:02;104914.09;;;20.56;100.00
24588;BME280;12744;52.270;9.746;2022-07-23T07:07:34;104824.16;;;20.62;100.00
24588;BME280;12744;52.270;9.746;2022-07-23T07:10:06;104787.00;;;21.02;100.00
24588;BME280;12744;52.270;9.746;2022-07-23T07:12:37;104683.66;;;21.29;100.00
24588;BME280;12744;52.270;9.746;2022-07-23T07:15:08;104401.34;;;20.51;100.00
24588;BME280;12744;52.270;9.746;2022-07-23T07:17:42;104396.56;;;21.13;100.00
24588;BME280;12744;52.270;9.746;2022-07-23T07:20:14;104289.47;;;21.21;100.00
24588;BME280;12744;52.270;9.746;2022-07-23T07:22:45;104209.34;;;21.63;100.00
24588;BME280;12744;52.270;9.746;2022-07-23T07:25:16;104084.81;;;21.47;100.00
24588;BME280;12744;52.270;9.746;2022-07-23T07:27:47;103942.31;;;21.13;100.00
24588;BME280;12744;52.270;9.746;2022-07-23T07:30:22;103873.94;;;21.43;100.00
24588;BME280;12744;52.270;9.746;2022-07-23T07:32:53;103759.03;;;21.71;100.00
24588;BME280;12744;52.270;9.746;2022-07-23T07:35:24;103489.03;;;21.19;100.00
24588;BME280;12744;52.270;9.746;2022-07-23T07:37:56;103454.03;;;21.68;100.00
24588;BME280;12744;52.270;9.746;2022-07-23T07:40:27;103346.19;;;21.48;100.00
24588;BME280;12744;52.270;9.746;2022-07-23T07:42:59;103319.03;;;21.62;100.00
24588;BME280;12744;52.270;9.746;2022-07-23T07:45:30;103186.72;;;21.45;100.00
24588;BME280;12744;52.270;9.746;2022-07-23T07:48:02;103142.84;;;20.75;100.00
24588;BME280;12744;52.270;9.746;2022-07-23T07:50:33;103114.50;;;20.79;100.00
24588;BME280;12744;52.270;9.746;2022-07-23T07:53:04;103204.13;;;21.87;100.00
24588;BME280;12744;52.270;9.746;2022-07-23T07:55:35;103034.81;;;21.62;100.00
24588;BME280;12744;52.270;9.746;2022-07-23T07:58:06;102870.31;;;20.68;100.00
24588;BME280;12744;52.270;9.746;2022-07-23T08:00:38;102840.16;;;20.52;100.00
24588;BME280;12744;52.270;9.746;2022-07-23T08:03:12;102821.75;;;20.15;100.00
24588;BME280;12744;52.270;9.746;2022-07-23T08:06:32;102773.38;;;19.83;100.00
24588;BME280;12744;52.270;9.746;2022-07-23T08:09:48;102868.47;;;21.96;100.00
24588;BME280;12744;52.270;9.746;2022-07-23T08:12:19;102695.91;;;21.99;100.00
24588;BME280;12744;52.270;9.746;2022-07-23T08:14:52;102526.69;;;21.39;100.00
24588;BME280;12744;52.270;9.746;2022-07-23T08:17:24;102524.25;;;21.92;100.00
24588;BME280;12744;52.270;9.746;2022-07-23T08:19:55;102425.47;;;22.56;100.00
24588;BME280;12744;52.270;9.746;2022-07-23T08:22:46;102322.63;;;23.63;100.00
24588;BME280;12744;52.270;9.746;2022-07-23T08:25:32;102055.03;;;22.34;100.00
24588;BME280;12744;52.270;9.746;2022-07-23T08:28:05;102020.63;;;21.42;100.00
24588;BME280;12744;52.270;9.746;2022-07-23T08:30:41;102109.91;;;22.78;100.00
24588;BME280;12744;52.270;9.746;2022-07-23T08:33:15;101976.25;;;23.47;100.00
24588;BME280;12744;52.270;9.746;2022-07-23T08:35:50;101817.16;;;23.09;100.00
24588;BME280;12744;52.270;9.746;2022-07-23T08:38:23;101828.31;;;23.17;100.00
24588;BME280;12744;52.270;9.746;2022-07-23T08:40:56;101872.53;;;21.98;100.00
24588;BME280;12744;52.270;9.746;2022-07-23T08:43:32;101846.66;;;21.76;100.00
24588;BME280;12744;52.270;9.746;2022-07-23T08:46:07;101877.03;;;23.27;100.00
24588;BME280;12744;52.270;9.746;2022-07-23T08:48:38;101735.75;;;23.15;100.00
24588;BME280;12744;52.270;9.746;2022-07-23T08:51:09;101684.69;;;23.87;100.00
24588;BME280;12744;52.270;9.746;2022-07-23T08:53:41;101720.66;;;23.87;100.00
24588;BME280;12744;52.270;9.746;2022-07-23T08:56:13;101725.09;;;23.44;100.00
24588;BME280;12744;52.270;9.746;2022-07-23T08:58:44;101783.44;;;24.62;100.00
24588;BME280;12744;52.270;9.746;2022-07-23T09:01:15;101658.31;;;24.21;100.00
24588;BME280;12744;52.270;9.746;2022-07-23T09:03:46;101502.41;;;24.54;100.00
24588;BME280;12744;52.270;9.746;2022-07-23T09:06:17;101437.06;;;24.28;100.00
24588;BME280;12744;52.270;9.746;2022-07-23T09:08:52;101475.09;;;23.71;100.00
24588;BME280;12744;52.270;9.746;2022-07-23T09:11:29;101509.06;;;22.70;100.00
24588;BME280;12744;52.270;9.746;2022-07-23T09:14:00;101573.13;;;22.59;100.00
24588;BME280;12744;52.270;9.746;2022-07-23T09:16:33;101714.25;;;23.34;100.00
24588;BME280;12744;52.270;9.746;2022-07-23T09:19:06;101554.22;;;24.28;100.00
24588;BME280;12744;52.270;9.746;2022-07-23T09:21:38;101482.94;;;24.97;100.00
24588;BME280;12744;52.270;9.746;2022-07-23T09:24:16;101560.28;;;25.62;100.00
24588;BME280;12744;52.270;9.746;2022-07-23T09:26:48;101394.75;;;25.99;100.00
24588;BME280;12744;52.270;9.746;2022-07-23T09:29:25;101268.53;;;25.34;100.00
24588;BME280;12744;52.270;9.746;2022-07-23T09:32:15;101437.16;;;24.91;100.00
24588;BME280;12744;52.270;9.746;2022-07-23T09:35:58;101298.28;;;24.03;100.00
24588;BME280;12744;52.270;9.746;2022-07-23T09:39:22;101385.16;;;22.95;100.00
24588;BME280;12744;52.270;9.746;2022-07-23T09:42:33;101528.00;;;24.26;100.00
24588;BME280;12744;52.270;9.746;2022-07-23T09:56:58;101301.72;;;23.83;100.00
24588;BME280;12744;52.270;9.746;2022-07-23T10:30:38;100774.13;;;25.01;100.00
24588;BME280;12744;52.270;9.746;2022-07-23T10:42:52;101373.22;;;26.17;100.00
24588;BME280;12744;52.270;9.746;2022-07-23T10:45:45;100941.19;;;25.22;100.00
24588;BME280;12744;52.270;9.746;2022-07-23T10:48:31;100951.19;;;24.16;100.00
24588;BME280;12744;52.270;9.746;2022-07-23T10:51:18;101076.91;;;25.07;100.00
24588;BME280;12744;52.270;9.746;2022-07-23T11:18:59;100366.28;;;27.29;100.00
24588;BME280;12744;52.270;9.746;2022-07-23T11:24:21;100444.84;;;27.45;100.00
24588;BME280;12744;52.270;9.746;2022-07-23T11:27:45;100184.09;;;26.67;100.00
24588;BME280;12744;52.270;9.746;2022-07-23T11:30:42;100337.09;;;26.32;100.00
24588;BME280;12744;52.270;9.746;2022-07-23T11:36:54;100381.78;;;26.85;100.00
24588;BME280;12744;52.270;9.746;2022-07-23T11:39:33;100432.31;;;26.90;100.00
24588;BME280;12744;52.270;9.746;2022-07-23T11:45:13;100475.41;;;27.42;100.00
24588;BME280;12744;52.270;9.746;2022-07-23T11:47:47;100507.56;;;28.63;100.00
24588;BME280;12744;52.270;9.746;2022-07-23T11:50:34;100264.09;;;28.59;100.00
24588;BME280;12744;52.270;9.746;2022-07-23T11:57:44;100532.63;;;27.01;100.00
24588;BME280;12744;52.270;9.746;2022-07-23T12:00:48;100384.56;;;27.07;100.00
24588;BME280;12744;52.270;9.746;2022-07-23T12:03:30;100025.34;;;26.42;100.00
24588;BME280;12744;52.270;9.746;2022-07-23T12:06:10;100147.88;;;25.92;100.00
24588;BME280;12744;52.270;9.746;2022-07-23T12:08:49;100353.25;;;26.27;100.00
24588;BME280;12744;52.270;9.746;2022-07-23T12:11:28;100530.09;;;27.34;100.00
24588;BME280;12744;52.270;9.746;2022-07-23T12:14:02;100120.47;;;26.85;100.00
24588;BME280;12744;52.270;9.746;2022-07-23T12:17:08;99983.66;;;27.05;100.00
24588;BME280;12744;52.270;9.746;2022-07-23T12:23:28;100291.56;;;27.31;100.00
24588;BME280;12744;52.270;9.746;2022-07-23T12:26:04;100000.44;;;27.49;100.00
24588;BME280;12744;52.270;9.746;2022-07-23T12:29:35;99968.03;;;26.60;100.00
24588;BME280;12744;52.270;9.746;2022-07-23T12:32:32;100166.84;;;27.07;100.00
24588;BME280;12744;52.270;9.746;2022-07-23T12:35:50;99895.88;;;26.67;100.00
24588;BME280;12744;52.270;9.746;2022-07-23T12:38:24;100175.97;;;27.07;100.00
24588;BME280;12744;52.270;9.746;2022-07-23T12:40:59;100138.06;;;26.43;100.00
24588;BME280;12744;52.270;9.746;2022-07-23T12:43:37;100133.75;;;27.61;100.00
24588;BME280;12744;52.270;9.746;2022-07-23T12:46:19;99895.06;;;27.04;100.00
24588;BME280;12744;52.270;9.746;2022-07-23T12:48:52;100084.16;;;27.37;100.00
24588;BME280;12744;52.270;9.746;2022-07-23T12:51:28;100217.69;;;27.96;100.00
24588;BME280;12744;52.270;9.746;2022-07-23T12:54:08;99793.25;;;26.89;100.00
24588;BME280;12744;52.270;9.746;2022-07-23T12:56:44;100061.59;;;28.30;100.00
24588;BME280;12744;52.270;9.746;2022-07-23T12:59:16;99844.25;;;28.30;100.00
24588;BME280;12744;52.270;9.746;2022-07-23T13:01:55;100083.97;;;29.05;100.00
24588;BME280;12744;52.270;9.746;2022-07-23T13:04:28;99829.28;;;28.62;100.00
24588;BME280;12744;52.270;9.746;2022-07-23T13:07:23;99844.59;;;28.11;100.00
24588;BME280;12744;52.270;9.746;2022-07-23T13:10:27;99884.69;;;28.96;100.00
24588;BME280;12744;52.270;9.746;2022-07-23T13:16:16;99762.63;;;28.12;100.00
24588;BME280;12744;52.270;9.746;2022-07-23T13:18:48;99857.59;;;29.10;100.00
24588;BME280;12744;52.270;9.746;2022-07-23T13:21:19;99508.78;;;28.02;100.00
24588;BME280;12744;52.270;9.746;2022-07-23T13:23:50;99784.56;;;27.45;100.00
24588;BME280;12744;52.270;9.746;2022-07-23T13:26:22;99982.31;;;28.17;100.00
24588;BME280;12744;52.270;9.746;2022-07-23T13:28:53;99788.25;;;28.74;100.00
24588;BME280;12744;52.270;9.746;2022-07-23T13:31:24;99695.84;;;28.57;100.00
24588;BME280;12744;52.270;9.746;2022-07-23T13:33:55;99985.06;;;28.78;100.00
24588;BME280;12744;52.270;9.746;2022-07-23T13:36:26;99612.38;;;27.32;100.00
24588;BME280;12744;52.270;9.746;2022-07-23T13:38:57;99641.47;;;27.49;100.00
24588;BME280;12744;52.270;9.746;2022-07-23T13:41:29;99635.31;;;28.16;100.00
24588;BME280;12744;52.270;9.746;2022-07-23T13:44:00;99671.91;;;28.25;100.00
24588;BME280;12744;52.270;9.746;2022-07-23T13:46:31;99566.44;;;28.20;100.00
24588;BME280;12744;52.270;9.746;2022-07-23T13:49:02;99461.03;;;27.41;100.00
24588;BME280;12744;52.270;9.746;2022-07-23T13:51:34;99765.09;;;28.52;100.00
24588;BME280;12744;52.270;9.746;2022-07-23T14:06:51;99475.63;;;28.72;100.00
24588;BME280;12744;52.270;9.746;2022-07-23T14:09:23;99403.56;;;28.59;100.00
24588;BME280;12744;52.270;9.746;2022-07-23T14:11:54;99335.50;;;28.60;100.00
24588;BME280;12744;52.270;9.746;2022-07-23T14:14:25;99101.88;;;27.93;100.00
24588;BME280;12744;52.270;9.746;2022-07-23T14:16:57;99325.91;;;27.43;100.00
24588;BME280;12744;52.270;9.746;2022-07-23T14:19:28;99438.75;;;27.44;100.00
24588;BME280;12744;52.270;9.746;2022-07-23T14:21:59;99623.78;;;28.07;100.00
24588;BME280;12744;52.270;9.746;2022-07-23T14:24:31;99568.38;;;27.73;100.00
24588;BME280;12744;52.270;9.746;2022-07-23T14:27:03;99626.16;;;28.57;100.00
24588;BME280;12744;52.270;9.746;2022-07-23T14:29:34;99431.22;;;27.80;100.00
24588;BME280;12744;52.270;9.746;2022-07-23T14:32:06;99258.31;;;27.25;100.00
24588;BME280;12744;52.270;9.746;2022-07-23T14:37:25;99257.56;;;28.39;100.00
24588;BME280;12744;52.270;9.746;2022-07-23T14:39:56;99151.53;;;28.06;100.00
24588;BME280;12744;52.270;9.746;2022-07-23T14:42:27;99064.97;;;27.79;100.00
24588;BME280;12744;52.270;9.746;2022-07-23T14:44:58;99326.75;;;28.55;100.00
24588;BME280;12744;52.270;9.746;2022-07-23T14:47:29;99254.72;;;28.46;100.00
24588;BME280;12744;52.270;9.746;2022-07-23T14:50:01;99105.00;;;28.02;100.00
24588;BME280;12744;52.270;9.746;2022-07-23T14:52:32;99266.06;;;28.18;100.00
24588;BME280;12744;52.270;9.746;2022-07-23T14:55:03;99423.31;;;28.93;100.00
24588;BME280;12744;52.270;9.746;2022-07-23T14:57:35;99189.72;;;28.67;100.00
24588;BME280;12744;52.270;9.746;2022-07-23T15:00:26;99180.63;;;28.56;100.00
24588;BME280;12744;52.270;9.746;2022-07-23T15:02:57;99131.44;;;28.32;100.00
24588;BME280;12744;52.270;9.746;2022-07-23T15:05:28;99150.31;;;28.65;100.00
24588;BME280;12744;52.270;9.746;2022-07-23T15:08:01;98949.00;;;27.65;100.00
24588;BME280;12744;52.270;9.746;2022-07-23T15:10:52;98948.59;;;27.01;100.00
24588;BME280;12744;52.270;9.746;2022-07-23T15:13:23;99391.88;;;27.43;100.00